Time;durP1;ratioP1;P1;durP2;ratioP2;P2;SDS_P1;SDS_P2;PMS_P1;PMS_P2;Temp;Humidity;BMP_temperature;BMP_pressure;BME280_temperature;BME280_humidity;BME280_pressure;Samples;Min_cycle;Max_cycle;Signal;HPM_P1;HPM_P2
2023/08/04 00:01:02;;;;;;;6.60;0.63;;;;;;;17.87;77.14;99277.41;5024130;28;20056;-79
2023/08/04 00:03:29;;;;;;;5.95;0.60;;;;;;;18.06;77.41;99298.91;5024439;28;20056;-79
2023/08/04 00:05:57;;;;;;;8.52;0.70;;;;;;;18.05;77.30;99289.28;5032122;28;20045;-79
2023/08/04 00:08:24;;;;;;;4.90;0.60;;;;;;;17.97;77.27;99274.00;5015137;28;20053;-80
2023/08/04 00:10:51;;;;;;;3.38;0.38;;;;;;;18.05;77.43;99289.28;5014622;28;20491;-79
2023/08/04 00:13:18;;;;;;;4.70;1.10;;;;;;;18.04;76.99;99298.16;5014590;28;20052;-78
2023/08/04 00:15:45;;;;;;;6.38;0.70;;;;;;;18.04;77.31;99295.50;5014620;28;20046;-79
2023/08/04 00:18:12;;;;;;;4.90;0.45;;;;;;;18.03;77.19;99285.06;5033466;28;20107;-79
2023/08/04 00:20:39;;;;;;;3.20;1.00;;;;;;;18.01;77.15;99289.63;5022335;28;20418;-79
2023/08/04 00:23:08;;;;;;;4.75;0.40;;;;;;;18.02;77.17;99297.44;5020835;28;20056;-79
2023/08/04 00:25:35;;;;;;;4.50;1.00;;;;;;;17.87;77.13;99275.63;5025278;28;20403;-78
2023/08/04 00:28:02;;;;;;;7.38;0.70;;;;;;;18.01;76.97;99303.66;5030926;28;20120;-79
2023/08/04 00:30:28;;;;;;;8.68;0.80;;;;;;;17.93;77.29;99292.81;5027810;28;20096;-79
2023/08/04 00:32:55;;;;;;;9.35;0.55;;;;;;;17.94;77.26;99299.78;5020682;28;20050;-79
2023/08/04 00:35:22;;;;;;;2.58;0.40;;;;;;;18.00;77.18;99307.28;5025440;28;20053;-79
2023/08/04 00:37:49;;;;;;;8.27;1.25;;;;;;;17.99;77.14;99302.97;5021972;28;20073;-79
2023/08/04 00:40:18;;;;;;;4.68;0.50;;;;;;;17.99;77.17;99308.25;5018524;28;20050;-79
2023/08/04 00:42:45;;;;;;;2.72;0.70;;;;;;;17.99;77.18;99308.25;5020599;28;20054;-77
2023/08/04 00:45:12;;;;;;;7.95;0.60;;;;;;;17.98;77.32;99312.66;5025195;28;20128;-79
2023/08/04 00:47:39;;;;;;;4.10;0.50;;;;;;;17.99;77.41;99308.25;5021191;28;20045;-79
2023/08/04 00:50:09;;;;;;;4.38;0.50;;;;;;;17.97;77.41;99307.50;5028805;28;20073;-79
2023/08/04 00:52:39;;;;;;;6.32;0.88;;;;;;;17.97;77.20;99304.84;5027032;28;20569;-79
2023/08/04 00:55:09;;;;;;;7.03;0.55;;;;;;;17.94;77.29;99315.66;5025104;28;20056;-79
2023/08/04 00:57:38;;;;;;;5.88;0.70;;;;;;;17.93;77.44;99313.94;5017752;28;20060;-79
2023/08/04 01:00:06;;;;;;;10.13;0.60;;;;;;;17.96;77.33;99316.38;5022556;28;20537;-79
2023/08/04 01:02:33;;;;;;;5.57;0.60;;;;;;;17.90;77.27;99308.88;5029344;28;20068;-79
2023/08/04 01:05:00;;;;;;;6.65;0.60;;;;;;;17.90;77.41;99309.75;5023890;28;20409;-79
2023/08/04 01:07:31;;;;;;;8.18;0.60;;;;;;;17.95;77.34;99306.75;5026968;28;20059;-79
2023/08/04 01:10:07;;;;;;;4.53;0.80;;;;;;;17.90;77.10;99300.97;5022931;28;20521;-79
2023/08/04 01:12:46;;;;;;;3.08;0.55;;;;;;;17.88;77.26;99308.16;5025732;28;20049;-78
2023/08/04 01:15:15;;;;;;;10.23;1.02;;;;;;;17.85;77.44;99303.94;5030204;28;20075;-79
2023/08/04 01:17:41;;;;;;;5.72;0.60;;;;;;;17.91;77.15;99310.59;5019351;28;20042;-79
2023/08/04 01:20:10;;;;;;;5.15;0.60;;;;;;;17.90;77.20;99309.75;5026001;28;20052;-78
2023/08/04 01:22:38;;;;;;;6.82;0.60;;;;;;;17.91;77.27;99323.78;5020681;28;20096;-79
2023/08/04 01:25:05;;;;;;;4.93;0.70;;;;;;;17.87;77.34;99314.38;5024235;28;20050;-78
2023/08/04 01:27:38;;;;;;;7.15;0.70;;;;;;;17.89;77.26;99315.97;5020898;28;20469;-78
2023/08/04 01:30:08;;;;;;;2.97;0.70;;;;;;;17.88;77.19;99322.22;5021319;28;20211;-78
2023/08/04 01:32:35;;;;;;;5.88;0.57;;;;;;;17.81;77.35;99314.84;5024809;28;20057;-78
2023/08/04 01:35:03;;;;;;;3.58;0.75;;;;;;;17.88;77.44;99324.03;5025226;28;20390;-79
2023/08/04 01:37:30;;;;;;;6.65;1.05;;;;;;;17.88;77.42;99327.50;5024451;28;20051;-79
2023/08/04 01:39:58;;;;;;;10.93;0.68;;;;;;;17.79;76.76;99309.69;5025691;28;20410;-79
2023/08/04 01:42:25;;;;;;;5.43;0.60;;;;;;;17.81;77.15;99315.66;5013236;28;20084;-79
2023/08/04 01:44:52;;;;;;;8.13;1.15;;;;;;;17.88;77.26;99326.66;5022117;28;20646;-78
2023/08/04 01:47:19;;;;;;;5.30;0.40;;;;;;;17.89;77.07;99328.34;5023265;28;20050;-79
2023/08/04 01:49:46;;;;;;;7.40;1.35;;;;;;;17.89;77.37;99325.69;5024813;28;20049;-78
2023/08/04 01:52:13;;;;;;;6.25;0.60;;;;;;;17.83;77.20;99321.69;5019315;28;20051;-79
2023/08/04 01:54:40;;;;;;;4.60;0.55;;;;;;;17.88;77.22;99327.50;5026888;28;20516;-79
2023/08/04 01:57:08;;;;;;;5.53;0.90;;;;;;;17.88;77.30;99330.16;5025972;28;20056;-78
2023/08/04 01:59:35;;;;;;;3.72;0.60;;;;;;;17.89;77.27;99333.63;5021572;28;20045;-78
2023/08/04 02:02:02;;;;;;;7.00;0.60;;;;;;;17.89;76.99;99333.63;5021333;28;20513;-78
2023/08/04 02:04:29;;;;;;;6.57;0.90;;;;;;;17.86;77.18;99328.56;5023414;28;20061;-79
2023/08/04 02:06:56;;;;;;;4.97;0.50;;;;;;;17.89;77.25;99330.97;5022801;28;20045;-79
2023/08/04 02:09:27;;;;;;;5.05;0.40;;;;;;;17.88;77.11;99338.06;5031120;28;20503;-79
2023/08/04 02:11:54;;;;;;;2.60;0.43;;;;;;;17.86;77.07;99326.75;5021608;28;20061;-78
2023/08/04 02:14:23;;;;;;;8.10;0.85;;;;;;;17.83;76.99;99328.78;5018950;28;20045;-78
2023/08/04 02:16:50;;;;;;;5.88;0.50;;;;;;;17.88;77.12;99326.66;5012714;28;20057;-79
2023/08/04 02:19:17;;;;;;;5.90;0.73;;;;;;;17.87;77.14;99335.53;5012890;28;20042;-79
2023/08/04 02:21:43;;;;;;;9.60;0.60;;;;;;;17.87;77.22;99327.59;5012370;28;20495;-78
2023/08/04 02:24:10;;;;;;;4.05;0.52;;;;;;;17.87;76.99;99332.88;5017754;28;20064;-79
2023/08/04 02:26:37;;;;;;;5.25;0.50;;;;;;;17.87;77.03;99335.53;5018504;28;20138;-79
2023/08/04 02:29:04;;;;;;;6.57;0.70;;;;;;;17.80;77.16;99326.38;5016874;28;20491;-78
2023/08/04 02:31:34;;;;;;;4.43;0.90;;;;;;;17.87;77.13;99335.53;5018097;28;20414;-78
2023/08/04 02:34:01;;;;;;;4.53;0.50;;;;;;;17.86;77.11;99333.84;5028467;28;20046;-79
2023/08/04 02:36:28;;;;;;;3.65;0.60;;;;;;;17.79;77.12;99314.09;5025309;28;20060;-79
2023/08/04 02:38:55;;;;;;;3.80;0.50;;;;;;;17.85;77.03;99332.16;5030155;28;20119;-79
2023/08/04 02:41:22;;;;;;;3.90;0.60;;;;;;;17.85;76.88;99333.00;5026713;28;20042;-79
2023/08/04 02:43:49;;;;;;;4.80;1.17;;;;;;;17.85;77.22;99334.81;5032358;28;20426;-79
2023/08/04 02:46:16;;;;;;;4.35;0.50;;;;;;;17.85;76.77;99333.00;5027808;28;20132;-78
2023/08/04 02:48:44;;;;;;;3.25;0.50;;;;;;;17.83;77.16;99340.19;5028128;28;20063;-75
2023/08/04 02:51:13;;;;;;;5.45;1.80;;;;;;;17.83;77.17;99334.06;5026540;28;20056;-75
2023/08/04 02:53:43;;;;;;;2.58;0.50;;;;;;;17.79;76.93;99330.81;5025632;28;20057;-75
2023/08/04 02:56:10;;;;;;;2.75;0.68;;;;;;;17.83;76.97;99342.84;5019699;28;20042;-76
2023/08/04 02:58:37;;;;;;;2.92;0.40;;;;;;;17.83;77.01;99348.13;5019054;28;20048;-73
2023/08/04 03:01:04;;;;;;;6.55;0.77;;;;;;;17.82;77.22;99348.25;5028618;28;20060;-73
2023/08/04 03:03:32;;;;;;;4.40;0.43;;;;;;;17.80;76.94;99340.41;5024711;28;20053;-73
2023/08/04 03:06:01;;;;;;;5.35;0.57;;;;;;;17.83;76.97;99344.63;5021717;28;20052;-73
2023/08/04 03:08:29;;;;;;;3.95;0.50;;;;;;;17.83;77.21;99349.91;5013487;28;20132;-74
2023/08/04 03:10:56;;;;;;;4.60;1.02;;;;;;;17.83;77.23;99355.19;5021499;28;20058;-73
2023/08/04 03:13:24;;;;;;;6.65;0.60;;;;;;;17.62;77.24;99318.78;5013440;28;20060;-74
2023/08/04 03:15:55;;;;;;;11.38;1.40;;;;;;;17.83;77.27;99352.56;5020125;28;20409;-73
2023/08/04 03:18:22;;;;;;;4.40;0.50;;;;;;;17.82;77.21;99348.25;5026468;28;20100;-73
2023/08/04 03:20:49;;;;;;;1.88;0.50;;;;;;;17.80;77.21;99356.25;5028482;28;20041;-73
2023/08/04 03:23:18;;;;;;;1.52;0.30;;;;;;;17.80;77.22;99350.97;5025597;28;20398;-73
2023/08/04 03:25:45;;;;;;;2.55;0.50;;;;;;;17.80;77.12;99350.97;5018341;28;20085;-73
2023/08/04 03:28:11;;;;;;;6.90;1.33;;;;;;;17.81;77.25;99354.44;5017851;28;20586;-73
2023/08/04 03:30:38;;;;;;;1.98;0.50;;;;;;;17.81;77.09;99357.09;5021964;28;20053;-74
2023/08/04 03:33:05;;;;;;;2.78;0.60;;;;;;;17.81;77.21;99357.94;5025239;28;20054;-73
2023/08/04 03:35:32;;;;;;;2.00;0.60;;;;;;;17.80;77.54;99356.25;5023263;28;20414;-73
2023/08/04 03:37:59;;;;;;;6.95;0.57;;;;;;;17.81;77.12;99362.38;5023146;28;20057;-73
2023/08/04 03:40:27;;;;;;;3.80;0.60;;;;;;;17.79;77.31;99359.00;5021852;28;20060;-74
2023/08/04 03:42:54;;;;;;;5.07;0.50;;;;;;;17.80;77.44;99363.34;5022590;28;20046;-74
2023/08/04 03:45:21;;;;;;;5.43;0.70;;;;;;;17.77;77.12;99359.94;5023313;28;20060;-74
2023/08/04 03:47:48;;;;;;;3.05;0.50;;;;;;;17.78;77.28;99366.06;5023026;28;20050;-73
2023/08/04 03:50:15;;;;;;;2.88;0.60;;;;;;;17.71;77.28;99363.00;5024734;28;20421;-73
2023/08/04 03:52:42;;;;;;;3.35;1.23;;;;;;;17.77;77.29;99370.50;5019883;28;20404;-73
2023/08/04 03:55:09;;;;;;;5.30;0.70;;;;;;;17.76;77.40;99370.63;5022589;28;20042;-73
2023/08/04 03:57:38;;;;;;;1.25;0.60;;;;;;;17.76;77.07;99363.53;5020103;28;20053;-73
2023/08/04 04:00:06;;;;;;;3.25;0.70;;;;;;;17.76;77.29;99366.16;5019539;28;20053;-73
2023/08/04 04:02:33;;;;;;;4.97;0.93;;;;;;;17.77;77.35;99367.00;5012385;28;20396;-74
2023/08/04 04:05:00;;;;;;;2.78;0.50;;;;;;;17.77;77.36;99370.50;5020191;28;20041;-73
2023/08/04 04:07:27;;;;;;;2.20;0.50;;;;;;;17.75;77.31;99369.75;5022517;28;20046;-73
2023/08/04 04:09:54;;;;;;;2.45;0.50;;;;;;;17.77;77.42;99377.56;5023887;28;20045;-73
2023/08/04 04:12:21;;;;;;;0.98;0.40;;;;;;;17.80;77.55;99376.56;5019240;28;20060;-73
2023/08/04 04:14:49;;;;;;;5.53;0.52;;;;;;;17.80;77.63;99373.91;5017379;28;20129;-74
2023/08/04 04:17:16;;;;;;;3.03;0.50;;;;;;;17.77;77.47;99372.28;5027038;28;20049;-73
2023/08/04 04:19:43;;;;;;;2.28;1.30;;;;;;;17.79;77.54;99382.75;5029889;28;20050;-73
2023/08/04 04:22:10;;;;;;;5.00;0.50;;;;;;;17.80;77.21;99389.75;5029638;28;20049;-74
2023/08/04 04:24:37;;;;;;;3.15;0.43;;;;;;;17.81;77.49;99394.06;5027321;28;20062;-73
2023/08/04 04:27:05;;;;;;;5.78;0.93;;;;;;;17.81;77.59;99394.06;5028803;28;20399;-74
2023/08/04 04:29:32;;;;;;;1.58;0.50;;;;;;;17.82;77.50;99395.78;5012037;28;20046;-73
2023/08/04 04:32:00;;;;;;;3.00;0.57;;;;;;;17.82;77.65;99390.50;5020119;28;20054;-73
2023/08/04 04:34:27;;;;;;;2.88;0.98;;;;;;;17.82;77.69;99395.78;5023868;28;20425;-75
2023/08/04 04:36:57;;;;;;;3.22;0.90;;;;;;;17.82;77.64;99393.97;5022031;28;20442;-74
2023/08/04 04:39:24;;;;;;;1.27;0.47;;;;;;;17.77;77.62;99388.97;5021887;28;20049;-74
2023/08/04 04:41:51;;;;;;;7.22;0.80;;;;;;;17.84;77.80;99399.13;5019945;28;20589;-74
2023/08/04 04:44:18;;;;;;;2.05;0.60;;;;;;;17.84;77.66;99401.78;5026494;28;20053;-74
2023/08/04 04:46:45;;;;;;;0.80;0.40;;;;;;;17.85;77.73;99396.41;5015559;28;20467;-74
2023/08/04 04:49:14;;;;;;;2.10;0.52;;;;;;;17.82;77.83;99393.16;5015312;28;20050;-74
2023/08/04 04:51:41;;;;;;;5.97;0.50;;;;;;;17.87;77.92;99398.91;5017399;28;20045;-74
2023/08/04 04:54:08;;;;;;;4.30;0.60;;;;;;;17.87;77.91;99402.44;5018695;28;20050;-73
2023/08/04 04:56:35;;;;;;;1.48;0.50;;;;;;;17.88;78.08;99403.28;5018329;28;20053;-73
2023/08/04 04:59:01;;;;;;;2.38;0.52;;;;;;;17.89;77.93;99397.03;5020744;28;20195;-74
2023/08/04 05:01:28;;;;;;;1.73;0.45;;;;;;;17.76;77.93;99382.00;5011629;28;20089;-73
2023/08/04 05:03:55;;;;;;;5.82;0.73;;;;;;;17.92;78.13;99412.66;5018526;28;20049;-74
2023/08/04 05:06:24;;;;;;;5.53;0.85;;;;;;;17.89;78.08;99403.16;5021829;28;20494;-73
2023/08/04 05:08:50;;;;;;;6.40;0.63;;;;;;;17.93;77.95;99416.97;5021113;28;20042;-73
2023/08/04 05:11:17;;;;;;;4.32;0.43;;;;;;;17.93;78.18;99412.56;5011232;28;20409;-74
2023/08/04 05:13:45;;;;;;;6.45;0.63;;;;;;;17.94;78.27;99413.41;5018542;28;20050;-74
2023/08/04 05:16:12;;;;;;;1.15;0.50;;;;;;;17.95;78.36;99415.06;5021237;28;20525;-74
2023/08/04 05:18:39;;;;;;;3.03;0.43;;;;;;;17.88;78.28;99411.19;5021790;28;20054;-74
2023/08/04 05:21:06;;;;;;;3.45;0.70;;;;;;;17.97;78.33;99421.94;5025806;28;20056;-74
2023/08/04 05:23:34;;;;;;;7.63;1.77;;;;;;;17.98;78.46;99420.97;5026496;28;20222;-74
2023/08/04 05:26:01;;;;;;;2.60;0.60;;;;;;;17.89;78.24;99408.44;5015635;28;20050;-74
2023/08/04 05:28:30;;;;;;;1.80;0.40;;;;;;;18.01;78.44;99422.56;5019979;28;20477;-73
2023/08/04 05:30:58;;;;;;;7.57;0.70;;;;;;;18.04;78.58;99434.72;5025043;28;20072;-74
2023/08/04 05:33:26;;;;;;;3.03;0.50;;;;;;;18.06;78.63;99440.75;5010734;28;20053;-74
2023/08/04 05:35:54;;;;;;;3.13;0.50;;;;;;;18.02;78.51;99428.72;5018843;28;20057;-73
2023/08/04 05:38:21;;;;;;;5.25;0.60;;;;;;;18.10;78.58;99448.38;5021770;28;20049;-74
2023/08/04 05:40:50;;;;;;;4.25;0.63;;;;;;;18.11;78.61;99451.84;5022498;28;20448;-73
2023/08/04 05:43:17;;;;;;;2.45;0.60;;;;;;;18.15;78.56;99459.44;5021730;28;20052;-74
2023/08/04 05:45:47;;;;;;;1.92;0.47;;;;;;;18.17;78.63;99454.88;5010741;28;20056;-74
2023/08/04 05:48:14;;;;;;;4.10;0.52;;;;;;;18.15;78.64;99454.13;5020162;28;20545;-73
2023/08/04 05:50:41;;;;;;;2.60;0.60;;;;;;;18.23;78.46;99465.97;5019203;28;20049;-74
2023/08/04 05:53:10;;;;;;;2.20;0.52;;;;;;;18.25;78.48;99466.72;5019000;28;20149;-74
2023/08/04 05:55:37;;;;;;;5.45;1.15;;;;;;;18.27;78.52;99470.09;5020225;28;20062;-74
2023/08/04 05:58:08;;;;;;;1.33;0.60;;;;;;;18.28;78.57;99474.44;5018658;28;20053;-74
2023/08/04 06:00:36;;;;;;;4.03;0.93;;;;;;;18.29;78.52;99468.19;5011144;28;20414;-73
2023/08/04 06:03:04;;;;;;;3.63;0.60;;;;;;;18.32;78.59;99478.53;5019754;28;20054;-74
2023/08/04 06:05:31;;;;;;;0.93;0.57;;;;;;;18.30;78.48;99476.03;5010469;28;20084;-74
2023/08/04 06:07:57;;;;;;;2.55;0.60;;;;;;;18.27;78.43;99472.72;5016709;28;20045;-75
2023/08/04 06:10:24;;;;;;;3.17;0.80;;;;;;;18.38;78.52;99493.97;5023117;28;20391;-74
2023/08/04 06:12:52;;;;;;;2.38;0.50;;;;;;;18.40;78.41;99498.19;5024311;28;20057;-73
2023/08/04 06:15:20;;;;;;;4.15;0.82;;;;;;;18.42;78.53;99496.28;5026402;28;20060;-74
2023/08/04 06:17:48;;;;;;;3.13;0.85;;;;;;;18.45;78.80;99503.16;5027779;28;20136;-73
2023/08/04 06:20:14;;;;;;;1.30;0.60;;;;;;;18.28;78.76;99467.34;5020451;28;20053;-74
2023/08/04 06:22:41;;;;;;;2.53;1.13;;;;;;;18.49;78.82;99506.41;5011468;28;20050;-73
2023/08/04 06:25:09;;;;;;;3.40;0.70;;;;;;;18.49;78.93;99501.13;5018295;28;20055;-73
2023/08/04 06:27:36;;;;;;;5.53;0.70;;;;;;;18.53;78.69;99506.09;5025056;28;20120;-74
2023/08/04 06:30:03;;;;;;;7.90;0.80;;;;;;;18.56;78.98;99503.25;5020546;28;20052;-73
2023/08/04 06:32:31;;;;;;;1.27;0.60;;;;;;;18.56;78.67;99508.53;5016127;28;20045;-74
2023/08/04 06:34:58;;;;;;;2.58;0.50;;;;;;;18.62;78.80;99507.25;5018626;28;20064;-73
2023/08/04 06:37:25;;;;;;;3.97;0.63;;;;;;;18.65;78.71;99517.59;5019418;28;20057;-74
2023/08/04 06:39:52;;;;;;;4.13;0.52;;;;;;;18.68;78.45;99512.09;5022604;28;20499;-74
2023/08/04 06:42:20;;;;;;;1.42;0.50;;;;;;;18.71;78.45;99514.50;5024555;28;20066;-74
2023/08/04 06:44:47;;;;;;;2.65;0.50;;;;;;;18.74;78.25;99526.69;5016602;28;20144;-73
2023/08/04 06:47:15;;;;;;;2.95;0.63;;;;;;;18.76;78.06;99530.09;5017926;28;20050;-73
2023/08/04 06:49:44;;;;;;;2.65;0.50;;;;;;;18.79;77.54;99527.22;5017937;28;20490;-73
2023/08/04 06:52:11;;;;;;;0.65;0.40;;;;;;;18.78;77.77;99525.50;5024657;28;20060;-74
2023/08/04 06:54:38;;;;;;;1.85;0.40;;;;;;;18.76;77.66;99523.00;5022264;28;20080;-74
2023/08/04 06:57:06;;;;;;;2.33;0.50;;;;;;;18.84;77.64;99533.88;5017799;28;20054;-74
2023/08/04 06:59:33;;;;;;;1.55;0.40;;;;;;;18.86;77.93;99536.38;5016737;28;20054;-73
2023/08/04 07:02:00;;;;;;;3.00;0.40;;;;;;;18.89;77.99;99536.16;5017041;28;20050;-74
2023/08/04 07:04:27;;;;;;;0.50;0.40;;;;;;;18.95;77.95;99542.81;5018432;28;20046;-74
2023/08/04 07:06:55;;;;;;;2.70;0.73;;;;;;;18.99;78.14;99553.06;5018322;28;20046;-74
2023/08/04 07:09:22;;;;;;;1.73;0.40;;;;;;;19.01;78.08;99548.53;5009907;28;20050;-73
2023/08/04 07:11:49;;;;;;;1.30;0.43;;;;;;;19.05;78.11;99552.63;5014267;28;20053;-73
2023/08/04 07:14:16;;;;;;;6.65;0.70;;;;;;;19.08;78.16;99552.38;5019780;28;20136;-73
2023/08/04 07:16:46;;;;;;;4.72;0.70;;;;;;;19.13;78.35;99562.66;5019971;28;20065;-75
2023/08/04 07:19:12;;;;;;;0.50;0.40;;;;;;;19.16;78.36;99565.06;5020571;28;20453;-74
2023/08/04 07:21:39;;;;;;;1.67;0.70;;;;;;;19.16;78.37;99564.22;5020268;28;20053;-73
2023/08/04 07:24:09;;;;;;;1.08;0.50;;;;;;;19.24;78.27;99580.38;5016688;28;20061;-74
2023/08/04 07:26:36;;;;;;;1.27;0.60;;;;;;;19.29;78.26;99578.25;5018679;28;20421;-74
2023/08/04 07:29:03;;;;;;;4.90;1.25;;;;;;;19.26;78.40;99567.88;5016328;28;20046;-74
2023/08/04 07:31:31;;;;;;;2.28;0.50;;;;;;;19.37;78.61;99583.81;5017445;28;20073;-74
2023/08/04 07:33:58;;;;;;;1.55;0.40;;;;;;;19.36;78.15;99570.72;5023087;28;20054;-74
2023/08/04 07:36:25;;;;;;;2.15;0.90;;;;;;;19.38;77.85;99577.59;5020709;28;20046;-74
2023/08/04 07:38:55;;;;;;;2.97;0.50;;;;;;;19.47;77.73;99592.78;5020035;28;20128;-74
2023/08/04 07:41:25;;;;;;;4.63;0.50;;;;;;;19.42;77.41;99586.97;5021186;28;20498;-74
2023/08/04 07:43:55;;;;;;;2.78;0.50;;;;;;;19.52;77.17;99597.72;5014905;28;20525;-73
2023/08/04 07:46:25;;;;;;;2.22;0.50;;;;;;;19.55;77.16;99592.19;5024224;28;20061;-74
2023/08/04 07:48:52;;;;;;;1.25;0.40;;;;;;;19.61;77.07;99607.66;5012804;28;20054;-74
2023/08/04 07:51:20;;;;;;;1.90;0.57;;;;;;;19.64;77.24;99606.56;5022238;28;20077;-74
2023/08/04 07:53:47;;;;;;;2.08;0.70;;;;;;;19.68;77.60;99606.25;5021680;28;20046;-74
2023/08/04 07:56:14;;;;;;;1.52;0.85;;;;;;;19.72;77.19;99617.44;5021110;28;20056;-74
2023/08/04 07:58:43;;;;;;;2.05;0.50;;;;;;;19.77;77.16;99618.81;5023143;28;20058;-74
2023/08/04 08:01:10;;;;;;;3.05;0.63;;;;;;;19.83;77.14;99625.44;5023330;28;20133;-74
2023/08/04 08:03:37;;;;;;;1.50;0.60;;;;;;;19.89;76.97;99632.09;5022085;28;20137;-74
2023/08/04 08:06:04;;;;;;;4.97;0.70;;;;;;;19.94;76.63;99638.72;5021394;28;20062;-74
2023/08/04 08:08:32;;;;;;;2.03;0.60;;;;;;;20.03;76.42;99644.31;5024145;28;20062;-74
2023/08/04 08:10:59;;;;;;;2.95;0.60;;;;;;;20.05;76.69;99642.38;5026584;28;20049;-74
2023/08/04 08:13:26;;;;;;;3.17;0.80;;;;;;;20.16;76.29;99660.97;5027684;28;20088;-74
2023/08/04 08:15:54;;;;;;;0.73;0.50;;;;;;;20.22;76.45;99645.44;5014463;28;20414;-74
2023/08/04 08:18:21;;;;;;;2.55;0.80;;;;;;;20.25;76.07;99651.47;5013151;28;20145;-74
2023/08/04 08:20:48;;;;;;;4.00;0.63;;;;;;;20.35;75.78;99665.69;5013334;28;20387;-74
2023/08/04 08:23:15;;;;;;;2.63;0.90;;;;;;;20.32;75.41;99652.69;5014985;28;20068;-74
2023/08/04 08:25:42;;;;;;;5.28;1.27;;;;;;;20.39;74.82;99665.34;5025535;28;20060;-73
2023/08/04 08:28:09;;;;;;;2.45;0.82;;;;;;;20.42;74.70;99667.78;5014722;28;20046;-74
2023/08/04 08:30:36;;;;;;;4.65;0.82;;;;;;;20.42;74.70;99675.72;5028115;28;20120;-74
2023/08/04 08:33:04;;;;;;;5.80;1.20;;;;;;;20.46;74.62;99678.97;5025778;28;20041;-74
2023/08/04 08:35:31;;;;;;;1.58;0.90;;;;;;;20.49;74.04;99684.09;5022256;28;20502;-74
2023/08/04 08:37:58;;;;;;;1.77;0.82;;;;;;;20.50;74.16;99688.41;5022821;28;20537;-73
2023/08/04 08:40:25;;;;;;;2.50;0.98;;;;;;;20.49;74.02;99683.22;5020266;28;20064;-74
2023/08/04 08:42:53;;;;;;;3.50;1.23;;;;;;;20.52;74.12;99689.16;5026808;28;20395;-74
2023/08/04 08:45:23;;;;;;;2.25;1.00;;;;;;;20.54;74.02;99692.53;5023854;28;20065;-74
2023/08/04 08:47:50;;;;;;;3.47;1.02;;;;;;;20.53;74.14;99697.97;5011588;28;20056;-74
2023/08/04 08:50:22;;;;;;;1.90;1.08;;;;;;;20.55;74.39;99698.69;5019943;28;20057;-74
2023/08/04 08:52:58;;;;;;;3.80;1.65;;;;;;;20.44;74.75;99681.78;5016859;28;20481;-74
2023/08/04 08:55:27;;;;;;;2.58;0.93;;;;;;;20.61;74.65;99703.53;5018830;28;20068;-74
2023/08/04 08:57:56;;;;;;;3.17;0.80;;;;;;;20.65;74.79;99712.94;5023429;28;20140;-73
2023/08/04 09:00:23;;;;;;;0.98;0.90;;;;;;;20.64;74.43;99711.25;5020906;28;20445;-75
2023/08/04 09:02:50;;;;;;;1.15;0.60;;;;;;;20.70;74.45;99716.09;5022552;28;20050;-74
2023/08/04 09:05:18;;;;;;;2.25;0.73;;;;;;;20.65;73.81;99710.28;5022646;28;20133;-74
2023/08/04 09:07:45;;;;;;;4.55;1.45;;;;;;;20.70;73.45;99721.41;5011322;28;20489;-74
2023/08/04 09:10:12;;;;;;;1.88;0.52;;;;;;;20.73;73.88;99731.78;5022208;28;20060;-74
2023/08/04 09:12:40;;;;;;;0.50;0.40;;;;;;;20.73;73.89;99729.13;5023682;28;20061;-74
2023/08/04 09:15:08;;;;;;;2.25;0.50;;;;;;;20.76;73.87;99728.03;5024190;28;20048;-74
2023/08/04 09:17:36;;;;;;;1.67;0.50;;;;;;;20.84;74.17;99733.59;5021505;28;20096;-73
2023/08/04 09:20:05;;;;;;;1.55;0.55;;;;;;;20.83;73.52;99729.22;5022643;28;20049;-73
2023/08/04 09:22:39;;;;;;;0.50;0.40;;;;;;;20.87;72.58;99736.84;5021428;28;20579;-73
2023/08/04 09:25:07;;;;;;;1.27;0.30;;;;;;;20.96;72.45;99745.06;5018300;28;20045;-73
2023/08/04 09:27:37;;;;;;;3.03;0.73;;;;;;;20.99;72.88;99753.63;5026490;28;20060;-73
2023/08/04 09:30:07;;;;;;;0.65;0.40;;;;;;;21.03;73.21;99756.88;5027997;28;20095;-73
2023/08/04 09:32:41;;;;;;;3.20;0.60;;;;;;;21.02;73.06;99734.81;5026381;28;20050;-73
2023/08/04 09:35:08;;;;;;;0.70;0.70;;;;;;;21.09;72.97;99743.16;5021635;28;20394;-74
2023/08/04 09:37:38;;;;;;;3.10;0.60;;;;;;;21.25;72.63;99762.19;5021772;28;20055;-74
2023/08/04 09:40:14;;;;;;;2.90;0.70;;;;;;;21.30;72.45;99765.34;5025648;28;20049;-73
2023/08/04 09:42:41;;;;;;;2.67;0.60;;;;;;;21.36;72.62;99773.78;5023475;28;20060;-74
2023/08/04 09:45:12;;;;;;;3.15;1.15;;;;;;;21.38;72.16;99778.06;5022154;28;20473;-73
2023/08/04 09:47:39;;;;;;;1.00;0.88;;;;;;;21.45;71.52;99783.72;5010719;28;20062;-73
2023/08/04 09:50:10;;;;;;;0.80;0.73;;;;;;;21.48;71.12;99776.34;5020033;28;20056;-73
2023/08/04 09:52:39;;;;;;;1.13;0.68;;;;;;;21.52;71.17;99780.47;5019538;28;20060;-74
2023/08/04 09:55:11;;;;;;;0.52;0.50;;;;;;;21.56;71.43;99781.88;5019261;28;20052;-76
2023/08/04 09:57:38;;;;;;;2.88;0.70;;;;;;;21.62;71.10;99791.19;5019073;28;20065;-73
2023/08/04 10:00:07;;;;;;;1.63;0.60;;;;;;;21.66;70.38;99791.78;5019117;28;20055;-74
2023/08/04 10:02:35;;;;;;;0.52;0.40;;;;;;;21.69;69.98;99788.91;5020198;28;20045;-73
2023/08/04 10:05:03;;;;;;;0.68;0.50;;;;;;;21.74;69.46;99795.53;5018778;28;20425;-73
2023/08/04 10:07:31;;;;;;;2.58;0.60;;;;;;;21.79;70.18;99798.63;5017181;28;20045;-73
2023/08/04 10:10:03;;;;;;;0.52;0.52;;;;;;;21.83;69.72;99798.38;5015158;28;20050;-73
2023/08/04 10:12:32;;;;;;;1.95;0.50;;;;;;;21.89;69.49;99806.72;5013761;28;20112;-73
2023/08/04 10:15:00;;;;;;;1.98;0.50;;;;;;;21.89;69.51;99793.44;5018291;28;20064;-73
2023/08/04 10:17:27;;;;;;;1.58;0.40;;;;;;;21.99;69.64;99809.47;5012068;28;20049;-73
2023/08/04 10:20:05;;;;;;;1.55;0.52;;;;;;;22.01;69.31;99818.19;5011944;28;20522;-72
2023/08/04 10:22:35;;;;;;;0.45;0.40;;;;;;;21.96;69.23;99823.03;5013348;28;20502;-72
2023/08/04 10:25:13;;;;;;;3.03;0.40;;;;;;;22.02;68.76;99841.97;5022291;28;20050;-72
2023/08/04 10:27:47;;;;;;;1.75;0.30;;;;;;;22.00;69.01;99849.25;5010462;28;20054;-73
2023/08/04 10:30:14;;;;;;;0.93;0.50;;;;;;;21.98;69.22;99853.84;5010244;28;20053;-74
2023/08/04 10:32:42;;;;;;;1.50;0.40;;;;;;;21.96;69.61;99850.47;5014226;28;20045;-73
2023/08/04 10:35:18;;;;;;;3.30;0.40;;;;;;;21.96;69.48;99855.78;5010365;28;20052;-72
2023/08/04 10:37:48;;;;;;;1.60;0.40;;;;;;;21.95;69.91;99851.44;5010086;28;20046;-73
2023/08/04 10:40:27;;;;;;;1.80;0.50;;;;;;;21.95;70.01;99850.59;5015569;28;20466;-73
2023/08/04 10:42:59;;;;;;;3.22;0.30;;;;;;;21.96;70.58;99853.13;5018461;28;20081;-73
2023/08/04 10:45:50;;;;;;;0.45;0.30;;;;;;;21.99;70.37;99863.50;5014797;28;20068;-73
2023/08/04 10:48:19;;;;;;;1.20;0.40;;;;;;;21.97;70.38;99864.59;5028712;28;20494;-73
2023/08/04 10:50:46;;;;;;;2.47;0.30;;;;;;;21.98;69.86;99874.28;5027280;28;20049;-73
2023/08/04 10:53:14;;;;;;;1.38;0.32;;;;;;;21.83;69.71;99857.75;5026094;28;20112;-73
2023/08/04 10:55:57;;;;;;;0.68;0.30;;;;;;;21.97;70.00;99880.53;5017195;28;20120;-74
2023/08/04 10:58:25;;;;;;;0.93;0.30;;;;;;;21.96;69.44;99887.69;5023660;28;20092;-74
2023/08/04 11:00:53;;;;;;;0.30;0.30;;;;;;;21.95;69.78;99882.50;5022641;28;20434;-75
2023/08/04 11:03:22;;;;;;;1.33;0.30;;;;;;;21.95;69.93;99887.81;5022747;28;20046;-74
2023/08/04 11:05:50;;;;;;;0.30;0.28;;;;;;;21.95;69.56;99890.47;5013812;28;20049;-74
2023/08/04 11:08:17;;;;;;;0.80;0.25;;;;;;;21.96;69.67;99890.34;5023030;28;20050;-74
2023/08/04 11:10:47;;;;;;;0.38;0.20;;;;;;;21.99;69.38;99884.78;5017585;28;20053;-75
2023/08/04 11:13:17;;;;;;;1.83;0.20;;;;;;;22.01;68.87;99887.31;5017598;28;20180;-73
2023/08/04 11:15:44;;;;;;;0.22;0.20;;;;;;;21.98;68.67;99885.75;5020039;28;20461;-73
2023/08/04 11:18:12;;;;;;;2.65;0.30;;;;;;;22.03;67.44;99890.72;5022449;28;20054;-73
2023/08/04 11:20:40;;;;;;;1.42;0.20;;;;;;;22.05;67.15;99887.91;5024556;28;20049;-73
2023/08/04 11:23:09;;;;;;;0.95;0.10;;;;;;;22.06;66.86;99895.78;5027018;28;20059;-73
2023/08/04 11:25:37;;;;;;;0.40;0.10;;;;;;;22.08;66.74;99908.94;5021470;28;20061;-73
2023/08/04 11:28:05;;;;;;;0.20;0.10;;;;;;;22.04;66.23;99897.72;5031257;28;20071;-73
2023/08/04 11:30:35;;;;;;;0.45;0.10;;;;;;;22.00;66.35;99901.59;5016048;28;20045;-73
2023/08/04 11:33:02;;;;;;;0.30;0.20;;;;;;;22.09;65.89;99922.13;5018512;28;20046;-73
2023/08/04 11:35:30;;;;;;;1.20;0.20;;;;;;;22.08;65.51;99928.41;5019262;28;20049;-73
2023/08/04 11:37:57;;;;;;;0.32;0.20;;;;;;;22.08;65.80;99924.91;5019077;28;20581;-74